Time;durP1;ratioP1;P1;durP2;ratioP2;P2;SDS_P1;SDS_P2;PMS_P1;PMS_P2;Temp;Humidity;BMP_temperature;BMP_pressure;BME280_temperature;BME280_humidity;BME280_pressure;Samples;Min_cycle;Max_cycle;Signal;HPM_P1;HPM_P2
2022/08/11 00:02:01;;;;;;;4.30;2.10;;;;;;;17.93;52.08;94389.31;5006686;28;20665;-74
2022/08/11 00:04:46;;;;;;;2.30;2.10;;;;;;;17.87;52.23;94383.34;5000903;28;20258;-75
2022/08/11 00:07:31;;;;;;;6.13;2.30;;;;;;;17.96;52.25;94393.72;5011882;28;20219;-70
2022/08/11 00:10:20;;;;;;;6.97;2.00;;;;;;;17.83;52.54;94383.16;5012772;28;20210;-69
2022/08/11 00:13:08;;;;;;;2.10;1.87;;;;;;;17.88;52.43;94384.06;5010177;28;20261;-69
2022/08/11 00:15:53;;;;;;;2.30;2.10;;;;;;;17.84;52.49;94384.59;5008372;28;20265;-71
2022/08/11 00:18:42;;;;;;;3.23;1.87;;;;;;;17.82;52.56;94380.94;5013508;28;20196;-68
2022/08/11 00:21:27;;;;;;;5.83;2.30;;;;;;;17.64;53.11;94383.56;5013335;28;20196;-67
2022/08/11 00:24:11;;;;;;;3.37;2.30;;;;;;;17.72;53.14;94383.97;5000979;28;20610;-75
2022/08/11 00:26:57;;;;;;;5.57;1.93;;;;;;;17.59;53.14;94388.22;5013575;28;20195;-67
2022/08/11 00:29:52;;;;;;;7.43;2.30;;;;;;;17.62;53.09;94392.69;5013401;28;20219;-70
2022/08/11 00:32:37;;;;;;;6.43;2.00;;;;;;;17.81;52.76;94391.53;5007446;28;20210;-69
2022/08/11 00:35:29;;;;;;;3.00;2.27;;;;;;;17.59;53.52;94393.91;5005003;28;20208;-72
2022/08/11 00:38:14;;;;;;;2.43;2.00;;;;;;;17.67;53.17;94387.94;5000879;28;20196;-71
2022/08/11 00:41:33;;;;;;;3.13;2.10;;;;;;;17.56;53.69;94394.44;5013441;28;20261;-72
2022/08/11 00:44:40;;;;;;;5.90;2.47;;;;;;;17.53;53.61;94384.38;5010847;28;20278;-66
2022/08/11 00:47:30;;;;;;;4.03;2.37;;;;;;;17.57;53.55;94387.41;5004814;28;20199;-68
2022/08/11 00:50:40;;;;;;;7.07;2.87;;;;;;;17.56;53.64;94383.84;5013064;28;20230;-71
2022/08/11 00:54:07;;;;;;;5.37;2.67;;;;;;;17.42;54.07;94385.91;5009304;28;20307;-68
2022/08/11 00:57:03;;;;;;;5.87;3.03;;;;;;;17.32;54.17;94377.63;5003230;28;20196;-72
2022/08/11 01:00:04;;;;;;;5.10;2.17;;;;;;;17.18;54.77;94374.00;5002890;28;20661;-72
2022/08/11 01:03:19;;;;;;;3.13;2.37;;;;;;;17.32;54.57;94371.22;5009444;28;20685;-73
2022/08/11 01:06:28;;;;;;;2.83;2.13;;;;;;;17.31;54.62;94370.47;5001449;28;20224;-69
2022/08/11 01:09:37;;;;;;;2.70;2.50;;;;;;;17.21;54.91;94367.13;5002199;28;20224;-75
2022/08/11 01:12:40;;;;;;;7.70;2.57;;;;;;;17.14;55.33;94367.41;5003101;28;20215;-72
2022/08/11 01:15:31;;;;;;;2.90;2.30;;;;;;;16.96;55.40;94376.38;4997960;28;20223;-69
2022/08/11 01:18:47;;;;;;;2.50;2.30;;;;;;;16.90;55.82;94369.66;5002532;28;20238;-69
2022/08/11 01:21:55;;;;;;;6.83;2.50;;;;;;;16.71;56.54;94361.53;5002497;28;20677;-71
2022/08/11 01:24:56;;;;;;;3.50;2.27;;;;;;;16.65;56.54;94359.09;5008410;28;20200;-74
2022/08/11 01:28:05;;;;;;;5.17;2.77;;;;;;;16.58;57.14;94360.81;5001550;28;20231;-67
2022/08/11 01:31:23;;;;;;;3.43;2.23;;;;;;;16.46;57.56;94359.41;4999204;28;20318;-67
2022/08/11 01:34:19;;;;;;;3.07;2.43;;;;;;;16.31;58.25;94360.66;5006207;28;20200;-68
2022/08/11 01:37:23;;;;;;;3.37;2.43;;;;;;;16.28;58.34;94355.53;4998373;28;20283;-70
2022/08/11 01:40:20;;;;;;;5.40;3.03;;;;;;;16.43;58.08;94354.97;5004604;28;20200;-69
2022/08/11 01:47:01;;;;;;;4.43;2.17;;;;;;;16.22;58.68;94352.38;4999772;28;20204;-68
2022/08/11 01:50:29;;;;;;;9.00;2.97;;;;;;;16.28;58.40;94355.53;5001124;28;20227;-70
2022/08/11 01:53:26;;;;;;;3.30;2.20;;;;;;;16.16;58.92;94349.91;4994707;28;20673;-69
2022/08/11 01:56:28;;;;;;;3.50;2.57;;;;;;;16.01;59.46;94347.63;5003077;28;20235;-70
2022/08/11 01:59:35;;;;;;;4.50;2.40;;;;;;;16.00;59.55;94351.81;5001895;28;20196;-69
2022/08/11 02:05:59;;;;;;;4.73;2.60;;;;;;;15.88;59.79;94349.00;5000370;28;20212;-68
2022/08/11 02:08:51;;;;;;;3.80;2.70;;;;;;;15.84;60.05;94348.03;5007340;28;20224;-69
2022/08/11 02:11:37;;;;;;;3.43;2.77;;;;;;;15.62;61.01;94345.38;5000267;28;20220;-68
2022/08/11 02:14:33;;;;;;;3.77;2.97;;;;;;;15.93;60.24;94342.22;5007472;28;20203;-68
2022/08/11 02:17:40;;;;;;;3.67;2.70;;;;;;;16.10;59.62;94341.09;5010445;28;20239;-68
2022/08/11 02:23:54;;;;;;;4.03;2.33;;;;;;;16.00;59.90;94337.66;4995728;28;20598;-68
2022/08/11 02:26:47;;;;;;;3.80;2.80;;;;;;;15.93;59.98;94330.19;4998041;28;20191;-68
2022/08/11 02:29:43;;;;;;;3.50;2.80;;;;;;;15.95;60.02;94331.06;5003980;28;20228;-68
2022/08/11 02:36:00;;;;;;;5.20;2.90;;;;;;;15.70;60.93;94334.56;5002422;28;20204;-68
2022/08/11 02:38:55;;;;;;;4.00;2.73;;;;;;;15.59;61.12;94329.66;5002744;28;20270;-67
2022/08/11 02:42:21;;;;;;;9.70;2.80;;;;;;;15.69;60.80;94333.06;5005703;28;20200;-68
2022/08/11 02:45:24;;;;;;;5.97;3.50;;;;;;;15.77;60.88;94324.34;5006487;28;22732;-67
2022/08/11 02:52:03;;;;;;;5.60;3.07;;;;;;;15.41;62.28;94325.72;5005631;28;20664;-68
2022/08/11 02:55:16;;;;;;;5.13;2.50;;;;;;;15.41;62.27;94325.00;4995019;28;20204;-67
2022/08/11 02:58:38;;;;;;;3.73;2.70;;;;;;;15.45;62.08;94331.59;5003681;28;20274;-68
2022/08/11 03:01:44;;;;;;;6.07;3.00;;;;;;;15.41;62.29;94325.72;5004481;28;20717;-67
2022/08/11 03:04:50;;;;;;;4.80;2.97;;;;;;;15.22;62.54;94325.97;5001152;28;20219;-66
2022/08/11 03:07:46;;;;;;;7.63;2.87;;;;;;;15.28;62.68;94332.00;4997254;28;20196;-67
2022/08/11 03:10:43;;;;;;;4.20;3.00;;;;;;;15.35;62.27;94333.84;5005850;28;20205;-68
2022/08/11 03:16:45;;;;;;;4.37;3.00;;;;;;;14.96;63.86;94333.56;5001637;28;20227;-67
2022/08/11 03:19:32;;;;;;;5.60;2.83;;;;;;;14.92;63.91;94333.34;5000011;28;20196;-67
2022/08/11 03:22:33;;;;;;;4.90;3.43;;;;;;;15.02;63.86;94328.31;4996952;28;20203;-67
2022/08/11 03:25:33;;;;;;;4.27;3.23;;;;;;;15.04;63.53;94339.72;5000343;28;20200;-66
2022/08/11 03:28:27;;;;;;;4.87;3.37;;;;;;;15.15;63.51;94326.97;5002161;28;20216;-67
2022/08/11 03:31:33;;;;;;;8.37;3.43;;;;;;;15.37;62.56;94331.84;5000417;28;20664;-67
2022/08/11 03:34:21;;;;;;;4.57;3.03;;;;;;;15.14;63.34;94325.47;5004057;28;20687;-68
2022/08/11 03:44:15;;;;;;;4.50;2.93;;;;;;;15.31;62.93;94328.66;4996825;28;20204;-67
2022/08/11 03:47:30;;;;;;;9.57;3.20;;;;;;;15.34;62.64;94332.34;4997824;28;20208;-66
2022/08/11 03:50:23;;;;;;;5.03;3.10;;;;;;;15.11;63.37;94338.00;4999967;28;20258;-67
2022/08/11 03:53:26;;;;;;;4.13;3.23;;;;;;;14.83;64.51;94337.00;5001644;28;20564;-67
2022/08/11 03:56:37;;;;;;;5.00;2.93;;;;;;;14.84;64.50;94330.00;5008513;28;20282;-68
2022/08/11 03:59:52;;;;;;;9.30;3.93;;;;;;;14.94;64.39;94331.38;5001057;28;21038;-67
2022/08/11 04:02:38;;;;;;;3.57;3.27;;;;;;;15.04;63.97;94333.34;4995147;28;20195;-67
2022/08/11 04:05:35;;;;;;;16.93;3.50;;;;;;;15.03;64.21;94329.03;5001995;28;20251;-68
2022/08/11 04:08:46;;;;;;;4.83;3.33;;;;;;;15.08;64.12;94331.50;5008744;28;20215;-68
2022/08/11 04:11:30;;;;;;;3.90;3.47;;;;;;;14.74;65.06;94330.13;4998971;28;20204;-67
2022/08/11 04:18:16;;;;;;;4.53;3.10;;;;;;;14.90;64.58;94325.47;4997979;28;20283;-67
2022/08/11 04:21:15;;;;;;;4.47;3.33;;;;;;;14.94;64.65;94325.72;5006096;28;20200;-67
2022/08/11 04:24:05;;;;;;;6.40;3.23;;;;;;;15.01;64.59;94328.91;5006530;28;20257;-69
2022/08/11 04:27:12;;;;;;;8.83;3.10;;;;;;;15.07;64.11;94321.56;5000469;28;20200;-68
2022/08/11 04:30:16;;;;;;;5.40;3.07;;;;;;;15.08;64.15;94322.28;4997211;28;20225;-67
2022/08/11 04:33:48;;;;;;;4.77;2.97;;;;;;;15.39;63.60;94322.78;5000649;28;20207;-68
2022/08/11 04:40:45;;;;;;;3.33;3.03;;;;;;;15.78;61.89;94334.28;5004013;28;20827;-67
2022/08/11 04:43:47;;;;;;;6.93;3.17;;;;;;;15.91;61.57;94330.09;5009203;28;20192;-67
2022/08/11 04:47:05;;;;;;;8.67;3.67;;;;;;;15.83;62.05;94330.34;5000869;28;20199;-68
2022/08/11 05:03:14;;;;;;;5.77;3.43;;;;;;;16.82;59.74;94338.81;5007429;28;20208;-67
2022/08/11 05:06:28;;;;;;;6.73;3.60;;;;;;;16.76;59.78;94343.41;5002807;28;20224;-68
2022/08/11 05:09:18;;;;;;;5.17;3.43;;;;;;;17.11;58.64;94341.06;5012179;28;20215;-68
2022/08/11 05:12:18;;;;;;;7.77;3.70;;;;;;;17.33;58.57;94335.88;5010214;28;20212;-68
2022/08/11 05:37:29;;;;;;;9.40;3.13;;;;;;;17.73;56.51;94352.16;5007140;28;20201;-68
2022/08/11 05:58:53;;;;;;;7.40;3.70;;;;;;;18.01;56.39;94347.22;5000243;28;20669;-67
2022/08/11 06:01:38;;;;;;;5.53;3.50;;;;;;;18.46;55.58;94346.56;5005713;28;20669;-68
2022/08/11 06:04:24;;;;;;;4.20;3.20;;;;;;;18.47;55.07;94348.03;5000757;28;20273;-70
2022/08/11 06:07:11;;;;;;;23.93;4.00;;;;;;;18.50;54.92;94346.78;5004667;28;20291;-69
2022/08/11 06:09:58;;;;;;;3.93;3.20;;;;;;;18.40;54.95;94340.59;4993228;28;20252;-68
2022/08/11 06:12:42;;;;;;;4.17;3.07;;;;;;;18.70;53.94;94356.28;5002201;28;20246;-71
2022/08/11 06:15:29;;;;;;;5.87;3.80;;;;;;;18.43;55.27;94351.41;4998457;28;20197;-72
2022/08/11 06:18:14;;;;;;;4.20;3.60;;;;;;;18.37;55.99;94344.72;5009688;28;20195;-69
2022/08/11 06:20:59;;;;;;;5.40;3.30;;;;;;;18.70;55.14;94344.91;5006077;28;20219;-72
2022/08/11 06:23:45;;;;;;;4.53;3.00;;;;;;;18.54;55.20;94349.78;5003541;28;20235;-71
2022/08/11 06:26:30;;;;;;;5.73;2.90;;;;;;;18.87;53.94;94349.28;4999843;28;20262;-71
2022/08/11 06:29:17;;;;;;;4.87;2.80;;;;;;;18.46;54.35;94341.63;5006291;28;20231;-71
2022/08/11 06:32:02;;;;;;;4.37;3.20;;;;;;;18.96;54.34;94356.78;5008234;28;20542;-70
2022/08/11 06:35:21;;;;;;;5.37;3.40;;;;;;;18.60;55.76;94352.97;5009105;28;20203;-69
2022/08/11 06:38:09;;;;;;;7.00;3.23;;;;;;;18.95;53.87;94353.22;5006769;28;20196;-71
2022/08/11 06:44:12;;;;;;;4.33;2.77;;;;;;;19.14;53.94;94345.53;5028238;28;20196;-72
2022/08/11 06:47:07;;;;;;;9.43;3.23;;;;;;;19.47;52.27;94359.91;4999113;28;20196;-74
2022/08/11 06:53:02;;;;;;;4.57;3.30;;;;;;;19.25;53.64;94356.03;5001464;28;20298;-70
2022/08/11 07:02:11;;;;;;;4.07;3.20;;;;;;;19.83;51.59;94366.47;5009640;28;20252;-75
2022/08/11 07:05:03;;;;;;;7.40;3.73;;;;;;;20.15;51.60;94367.88;4999031;28;20219;-74
2022/08/11 07:17:36;;;;;;;5.83;3.13;;;;;;;19.95;52.13;94367.00;5001351;28;20683;-70
2022/08/11 07:29:32;;;;;;;4.97;2.80;;;;;;;20.34;52.17;94362.97;5007507;28;20262;-68
2022/08/11 07:32:25;;;;;;;4.07;3.20;;;;;;;20.56;51.86;94358.19;5006799;28;20195;-68
2022/08/11 07:35:14;;;;;;;4.43;2.90;;;;;;;20.77;50.88;94359.75;5005123;28;20204;-70
2022/08/11 07:38:06;;;;;;;3.53;3.00;;;;;;;21.00;50.89;94359.25;5005022;28;20196;-69
2022/08/11 07:40:51;;;;;;;4.28;3.15;;;;;;;21.45;49.63;94361.72;5006692;28;20203;-68
2022/08/11 07:43:37;;;;;;;3.27;3.00;;;;;;;21.68;49.81;94357.56;4992260;28;20311;-70
2022/08/11 07:52:33;;;;;;;2.70;2.50;;;;;;;21.06;50.11;94350.22;4999810;28;20698;-70
2022/08/11 07:55:20;;;;;;;3.67;2.87;;;;;;;21.58;48.86;94351.50;4997519;28;20236;-72
2022/08/11 08:19:35;;;;;;;4.40;2.42;;;;;;;21.91;47.07;94357.00;5004733;28;20202;-69
2022/08/11 08:22:20;;;;;;;5.68;2.65;;;;;;;21.57;49.47;94361.44;5007376;28;20200;-73
2022/08/11 08:25:06;;;;;;;6.72;2.40;;;;;;;21.84;49.36;94355.34;5001818;28;20208;-68
2022/08/11 08:27:52;;;;;;;3.65;2.58;;;;;;;22.01;48.25;94351.69;5011793;28;20203;-68
2022/08/11 08:30:46;;;;;;;6.40;2.92;;;;;;;22.46;49.34;94353.22;5008809;28;20204;-68
2022/08/11 08:33:31;;;;;;;5.13;2.67;;;;;;;23.32;46.41;94357.44;5005140;28;20208;-70
2022/08/11 08:36:18;;;;;;;5.93;2.80;;;;;;;23.47;45.06;94358.63;4996460;28;20204;-68
2022/08/11 08:39:02;;;;;;;3.38;2.70;;;;;;;23.57;45.23;94356.81;5004153;28;20223;-70
2022/08/11 08:41:51;;;;;;;5.40;2.45;;;;;;;23.78;45.19;94355.97;5007318;28;20716;-68
2022/08/11 08:44:40;;;;;;;5.15;2.53;;;;;;;23.48;46.12;94357.94;5006561;28;20287;-67
2022/08/11 08:47:26;;;;;;;5.45;2.50;;;;;;;23.42;45.30;94360.59;5010547;28;20199;-76
2022/08/11 08:50:13;;;;;;;5.53;2.97;;;;;;;23.17;45.69;94355.53;5010072;28;20228;-69
2022/08/11 08:53:04;;;;;;;5.30;2.83;;;;;;;23.82;45.25;94360.38;5011108;28;20204;-67
2022/08/11 08:55:50;;;;;;;5.32;2.78;;;;;;;23.77;46.18;94360.25;5002267;28;20201;-67
2022/08/11 08:58:38;;;;;;;4.40;2.70;;;;;;;23.97;44.99;94362.22;5002407;28;20195;-72
2022/08/11 09:01:24;;;;;;;2.75;2.50;;;;;;;23.25;45.67;94362.25;5010970;28;20291;-68
2022/08/11 09:04:09;;;;;;;3.58;2.45;;;;;;;23.39;45.73;94356.25;5006991;28;20192;-73
2022/08/11 09:06:57;;;;;;;4.78;2.63;;;;;;;23.57;44.97;94365.38;5001885;28;20208;-72
2022/08/11 09:09:43;;;;;;;3.28;2.67;;;;;;;23.41;44.40;94364.84;4994771;28;20716;-74
2022/08/11 09:12:29;;;;;;;5.13;2.50;;;;;;;23.67;43.92;94359.94;5008852;28;20290;-70
2022/08/11 09:15:16;;;;;;;3.88;2.30;;;;;;;23.99;44.27;94362.28;5009231;28;20199;-70
2022/08/11 09:18:05;;;;;;;4.45;2.33;;;;;;;24.19;43.64;94363.59;5001563;28;20218;-71
2022/08/11 09:20:49;;;;;;;3.08;2.20;;;;;;;24.03;44.55;94368.13;5010871;28;20358;-70
2022/08/11 09:29:42;;;;;;;4.25;2.78;;;;;;;23.47;45.53;94362.22;5006931;28;20688;-66
2022/08/11 09:32:30;;;;;;;3.80;2.83;;;;;;;23.63;44.48;94367.69;5007526;28;20199;-68
2022/08/11 09:35:16;;;;;;;6.88;2.85;;;;;;;24.30;43.02;94366.75;5002088;28;20285;-69
2022/08/11 09:41:07;;;;;;;4.68;2.60;;;;;;;23.66;46.45;94367.06;5011290;28;20239;-68
2022/08/11 09:46:59;;;;;;;5.72;2.78;;;;;;;24.61;42.54;94376.88;4998274;28;20203;-69
2022/08/11 09:49:44;;;;;;;3.30;2.67;;;;;;;24.57;42.25;94377.47;5005882;28;20314;-71
2022/08/11 09:52:33;;;;;;;4.00;2.75;;;;;;;24.06;44.45;94373.25;5009571;28;20200;-69
2022/08/11 09:55:18;;;;;;;4.20;2.67;;;;;;;24.50;44.30;94373.00;5005444;28;20200;-70
2022/08/11 09:58:18;;;;;;;4.20;2.60;;;;;;;24.92;43.64;94370.53;5003102;28;20669;-71
2022/08/11 10:01:04;;;;;;;2.83;2.50;;;;;;;24.88;42.46;94365.38;5012336;28;20203;-69
2022/08/11 10:03:48;;;;;;;6.10;2.45;;;;;;;24.73;42.31;94371.44;5008491;28;20204;-69
2022/08/11 10:09:50;;;;;;;4.25;2.70;;;;;;;25.03;42.74;94369.34;5004842;28;20278;-68
2022/08/11 10:12:41;;;;;;;3.83;2.60;;;;;;;25.10;41.91;94367.34;5001152;28;20269;-70
2022/08/11 10:15:36;;;;;;;7.45;2.50;;;;;;;24.26;43.53;94367.34;5001381;28;20208;-74
2022/08/11 10:18:41;;;;;;;4.50;2.70;;;;;;;24.78;42.83;94361.53;5006235;28;20794;-69
2022/08/11 10:21:28;;;;;;;7.53;2.70;;;;;;;25.26;43.02;94357.00;5000126;28;20246;-69
2022/08/11 10:27:16;;;;;;;4.30;2.65;;;;;;;25.84;40.55;94353.97;5009348;28;20211;-70
2022/08/11 10:36:07;;;;;;;3.10;2.40;;;;;;;25.01;41.53;94343.50;5011202;28;20306;-69
2022/08/11 10:38:52;;;;;;;6.55;2.00;;;;;;;24.84;39.78;94353.09;5010288;28;20227;-77
2022/08/11 10:44:43;;;;;;;2.67;2.30;;;;;;;24.88;40.50;94347.44;5000919;28;20639;-71
2022/08/11 10:47:33;;;;;;;2.65;2.00;;;;;;;25.68;39.62;94342.16;4998260;28;20672;-72
2022/08/11 10:59:33;;;;;;;3.55;1.90;;;;;;;25.90;38.06;94334.00;4996040;28;20669;-73
2022/08/11 11:02:18;;;;;;;2.22;2.03;;;;;;;25.18;39.32;94336.72;5001135;28;20197;-72
2022/08/11 11:05:27;;;;;;;8.10;2.25;;;;;;;26.28;38.55;94330.47;5005050;28;20303;-73
2022/08/11 11:18:08;;;;;;;10.68;2.55;;;;;;;25.57;38.58;94343.34;5003442;28;20210;-71
2022/08/11 11:20:55;;;;;;;2.78;2.13;;;;;;;26.09;39.60;94332.97;4996013;28;20201;-70
2022/08/11 11:24:12;;;;;;;4.72;2.30;;;;;;;26.38;37.04;94334.25;5008914;28;20234;-70
2022/08/11 11:27:11;;;;;;;5.72;2.08;;;;;;;26.77;38.73;94315.53;4996956;28;20192;-70
2022/08/11 11:30:05;;;;;;;2.10;2.00;;;;;;;26.40;37.59;94324.94;5003935;28;20231;-71
2022/08/11 11:33:06;;;;;;;4.75;2.50;;;;;;;26.62;39.07;94319.56;4999650;28;20307;-73
2022/08/11 11:36:14;;;;;;;4.50;2.20;;;;;;;27.00;36.98;94318.78;4997369;28;20204;-73
2022/08/11 11:38:58;;;;;;;4.95;2.00;;;;;;;25.76;37.70;94313.63;5007496;28;20580;-75
2022/08/11 11:41:43;;;;;;;3.72;2.05;;;;;;;26.77;38.31;94309.78;5001279;28;20211;-72
2022/08/11 11:44:28;;;;;;;2.85;2.20;;;;;;;26.39;37.20;94320.59;5002525;28;20195;-75
2022/08/11 11:47:14;;;;;;;4.40;2.20;;;;;;;27.06;37.39;94316.00;5002000;28;20208;-72
2022/08/11 11:49:59;;;;;;;3.72;2.20;;;;;;;26.41;37.91;94309.16;5002568;28;20220;-73
2022/08/11 11:52:44;;;;;;;4.50;2.35;;;;;;;27.27;36.60;94301.22;5006154;28;20207;-73
2022/08/11 11:55:29;;;;;;;2.10;1.83;;;;;;;27.11;35.72;94303.84;5004935;28;20557;-73
2022/08/11 12:01:24;;;;;;;4.05;2.00;;;;;;;27.11;34.99;94300.25;5008960;28;20681;-76
2022/08/11 12:04:10;;;;;;;3.58;2.10;;;;;;;27.33;36.54;94303.47;5000161;28;20206;-73
2022/08/11 12:08:08;;;;;;;2.70;2.15;;;;;;;26.59;36.45;94300.84;5008602;28;20204;-73
2022/08/11 12:09:59;;;;;;;2.83;2.13;;;;;;;26.56;36.40;94302.22;5001441;28;20219;-73
2022/08/11 12:15:49;;;;;;;3.35;2.35;;;;;;;27.11;37.14;94288.75;5003370;28;20200;-71
2022/08/11 12:18:35;;;;;;;4.88;2.20;;;;;;;27.03;37.14;94305.91;5004383;28;20451;-73
2022/08/11 12:21:20;;;;;;;2.72;2.17;;;;;;;27.93;35.05;94297.06;5001630;28;20204;-72
2022/08/11 12:27:22;;;;;;;3.45;1.85;;;;;;;28.74;33.57;94292.19;5010426;28;20213;-71
2022/08/11 12:30:08;;;;;;;3.80;2.25;;;;;;;28.09;35.76;94291.47;5006859;28;20575;-72
2022/08/11 12:32:52;;;;;;;6.35;2.28;;;;;;;27.94;34.87;94289.88;4996529;28;20271;-73
2022/08/11 12:35:37;;;;;;;3.25;2.47;;;;;;;26.96;37.42;94279.91;5004775;28;20207;-71
2022/08/11 12:38:22;;;;;;;3.70;2.10;;;;;;;27.01;37.51;94285.72;5007522;28;20211;-67
2022/08/11 12:47:18;;;;;;;5.70;2.00;;;;;;;27.96;36.91;94266.88;5009701;28;20267;-68
2022/08/11 12:53:09;;;;;;;7.03;2.10;;;;;;;27.42;35.71;94276.25;5006379;28;20218;-70
2022/08/11 13:05:20;;;;;;;3.00;2.10;;;;;;;27.84;35.00;94267.44;5007305;28;20700;-74
2022/08/11 13:08:05;;;;;;;3.78;2.70;;;;;;;27.13;36.81;94257.13;4996808;28;20552;-71
2022/08/11 13:13:55;;;;;;;2.70;2.13;;;;;;;28.18;33.99;94261.34;5010059;28;20239;-70
2022/08/11 13:19:44;;;;;;;4.95;2.38;;;;;;;27.77;34.49;94263.75;5012231;28;20219;-70
2022/08/11 13:22:28;;;;;;;3.58;1.95;;;;;;;27.67;35.28;94260.75;5011123;28;20199;-70
2022/08/11 13:25:15;;;;;;;9.63;2.35;;;;;;;28.19;34.98;94254.16;5004456;28;20232;-75
2022/08/11 13:28:00;;;;;;;3.65;2.33;;;;;;;28.69;33.88;94250.31;5003778;28;20199;-74
2022/08/11 13:33:50;;;;;;;2.88;2.40;;;;;;;27.85;34.91;94250.88;4995971;28;20200;-74
2022/08/11 13:36:35;;;;;;;6.30;2.50;;;;;;;27.93;35.02;94256.72;5011911;28;20230;-70
2022/08/11 13:39:22;;;;;;;3.92;2.05;;;;;;;28.83;31.98;94256.19;5012305;28;20653;-74
2022/08/11 13:42:06;;;;;;;3.40;2.15;;;;;;;28.54;33.97;94247.28;5008693;28;20196;-72
2022/08/11 13:44:50;;;;;;;2.10;1.95;;;;;;;28.42;34.06;94252.94;4998507;28;20204;-71
2022/08/11 13:47:36;;;;;;;3.53;2.00;;;;;;;28.41;34.09;94251.50;5003803;28;20532;-71
2022/08/11 13:51:29;;;;;;;4.05;2.33;;;;;;;27.58;34.13;94241.94;5012643;28;20224;-70
2022/08/11 13:53:29;;;;;;;5.22;2.03;;;;;;;27.71;34.04;94242.81;5007822;28;20199;-72
2022/08/11 13:56:13;;;;;;;4.63;2.20;;;;;;;28.61;32.02;94245.19;5003997;28;20599;-71
2022/08/11 13:59:00;;;;;;;3.92;2.03;;;;;;;28.10;32.55;94241.06;5011953;28;20708;-76
2022/08/11 14:01:48;;;;;;;5.88;2.08;;;;;;;27.51;34.60;94231.03;5009129;28;20199;-71
2022/08/11 14:04:48;;;;;;;6.10;2.10;;;;;;;28.42;33.07;94235.66;4996277;28;20705;-72
2022/08/11 14:07:38;;;;;;;5.70;1.90;;;;;;;28.30;35.23;94241.31;4997250;28;20196;-72
2022/08/11 14:10:27;;;;;;;6.05;2.50;;;;;;;27.81;33.97;94233.56;5012960;28;20247;-71
2022/08/11 14:16:28;;;;;;;7.55;2.10;;;;;;;29.53;30.26;94226.34;5003557;28;20197;-74
2022/08/11 14:19:14;;;;;;;9.55;2.33;;;;;;;29.07;32.08;94224.63;5004284;28;20666;-72
2022/08/11 14:22:07;;;;;;;6.72;1.85;;;;;;;28.30;33.83;94223.28;5003540;28;20566;-72
2022/08/11 14:24:52;;;;;;;9.07;2.03;;;;;;;28.33;33.40;94228.34;4994551;28;20267;-72
2022/08/11 14:27:37;;;;;;;4.13;1.80;;;;;;;28.70;32.05;94228.69;5000813;28;20805;-72
2022/08/11 14:33:25;;;;;;;4.50;2.00;;;;;;;27.99;33.71;94222.97;4998388;28;20286;-74
2022/08/11 14:36:10;;;;;;;3.60;1.90;;;;;;;27.82;33.88;94220.63;5000060;28;20204;-71
2022/08/11 14:38:55;;;;;;;4.22;1.98;;;;;;;28.75;32.89;94225.16;5007054;28;20196;-73
2022/08/11 14:48:09;;;;;;;5.53;1.80;;;;;;;28.37;33.01;94219.75;4992926;28;20231;-70
2022/08/11 14:50:54;;;;;;;2.72;1.73;;;;;;;28.51;33.23;94213.38;5006389;28;20200;-70
2022/08/11 14:53:39;;;;;;;4.03;1.77;;;;;;;28.22;31.81;94206.63;5009196;28;20626;-76
2022/08/11 14:56:36;;;;;;;4.88;1.70;;;;;;;28.31;32.83;94219.69;5004317;28;20204;-71
2022/08/11 14:59:20;;;;;;;2.42;1.65;;;;;;;28.30;31.43;94212.47;5008233;28;20546;-74
2022/08/11 15:05:08;;;;;;;3.08;1.60;;;;;;;28.51;32.03;94217.00;5005238;28;20223;-73
2022/08/11 15:07:55;;;;;;;3.53;2.00;;;;;;;28.58;32.26;94218.47;5007650;28;20200;-75
2022/08/11 15:10:40;;;;;;;2.20;1.80;;;;;;;27.92;31.56;94215.69;5005418;28;20232;-75
2022/08/11 15:13:24;;;;;;;2.00;1.70;;;;;;;27.96;31.18;94209.25;5002604;28;20663;-71
2022/08/11 15:19:12;;;;;;;6.75;2.28;;;;;;;27.65;32.90;94206.00;5008569;28;20192;-72
2022/08/11 15:24:59;;;;;;;2.67;1.85;;;;;;;28.20;33.14;94203.75;4992599;28;20616;-71
2022/08/11 15:37:26;;;;;;;6.90;1.92;;;;;;;27.52;34.10;94198.69;5010446;28;20246;-72
2022/08/11 15:46:53;;;;;;;4.47;1.33;;;;;;;27.35;33.12;94191.25;5001033;28;20204;-70
2022/08/11 15:49:40;;;;;;;2.20;1.40;;;;;;;27.68;32.53;94193.09;5003599;28;20290;-75
2022/08/11 15:52:29;;;;;;;2.88;1.63;;;;;;;27.48;32.25;94187.09;4999470;28;20196;-71
2022/08/11 15:55:15;;;;;;;7.40;1.92;;;;;;;27.52;33.20;94187.16;5007524;28;20305;-71
2022/08/11 16:04:16;;;;;;;5.35;1.75;;;;;;;28.00;32.26;94184.09;5005632;28;20278;-71
2022/08/11 16:07:10;;;;;;;7.28;1.75;;;;;;;28.13;32.40;94187.81;5003794;28;20192;-76
2022/08/11 16:10:09;;;;;;;18.00;2.55;;;;;;;28.21;33.03;94187.19;4998226;28;20231;-72
2022/08/11 16:16:13;;;;;;;12.35;1.90;;;;;;;27.88;32.56;94186.13;5008328;28;20680;-71
2022/08/11 16:16:14;;;;;;;6.55;1.88;;;;;;;27.87;31.11;94178.91;5004814;28;20199;-76
2022/08/11 16:19:01;;;;;;;1.60;1.35;;;;;;;27.71;32.53;94171.53;5007431;28;20677;-72
2022/08/11 16:21:50;;;;;;;5.10;1.48;;;;;;;27.57;32.71;94165.63;5008824;28;20196;-73
2022/08/11 16:24:38;;;;;;;7.43;1.58;;;;;;;27.43;32.86;94164.72;5004383;28;20197;-69
2022/08/11 16:27:24;;;;;;;8.75;2.35;;;;;;;26.76;34.79;94164.56;5004795;28;20212;-70
2022/08/11 16:30:09;;;;;;;3.78;1.88;;;;;;;27.19;33.31;94163.00;5004055;28;20216;-73
2022/08/11 16:32:56;;;;;;;10.52;2.40;;;;;;;27.03;33.95;94164.94;5001382;28;20289;-69
2022/08/11 16:38:48;;;;;;;13.13;2.63;;;;;;;27.10;33.09;94160.69;5008641;28;20239;-74
2022/08/11 16:47:44;;;;;;;15.05;2.30;;;;;;;26.34;34.24;94161.03;5001858;28;20756;-72
2022/08/11 16:50:29;;;;;;;23.48;2.67;;;;;;;26.24;33.90;94169.47;5001596;28;20224;-72
2022/08/11 16:53:15;;;;;;;3.97;2.10;;;;;;;25.85;34.64;94165.22;5007209;28;20200;-71
2022/08/11 16:56:02;;;;;;;2.00;1.58;;;;;;;26.06;33.96;94167.72;4995685;28;20587;-75
2022/08/11 17:02:06;;;;;;;4.00;1.67;;;;;;;25.75;34.16;94162.88;5003553;28;20191;-75
2022/08/11 17:14:25;;;;;;;4.03;1.70;;;;;;;25.33;34.87;94171.38;5011689;28;20196;-76
2022/08/11 17:17:15;;;;;;;3.38;1.40;;;;;;;25.15;34.58;94171.75;4996325;28;20226;-73
2022/08/11 17:20:06;;;;;;;2.28;1.52;;;;;;;25.04;34.99;94172.22;5006184;28;20199;-73
2022/08/11 17:25:57;;;;;;;4.60;1.50;;;;;;;25.21;34.70;94180.47;5012905;28;20199;-76
2022/08/11 17:28:42;;;;;;;4.28;1.80;;;;;;;25.20;34.97;94176.16;5005901;28;20224;-71
2022/08/11 17:37:36;;;;;;;6.55;2.00;;;;;;;24.72;35.20;94166.50;5006206;28;20650;-76
2022/08/11 17:40:23;;;;;;;10.55;1.80;;;;;;;24.65;35.71;94170.63;5012531;28;20196;-75
2022/08/11 17:49:14;;;;;;;4.28;1.80;;;;;;;24.62;36.02;94166.28;5007961;28;20215;-72
2022/08/11 18:01:11;;;;;;;3.08;1.70;;;;;;;25.47;34.67;94173.81;5000626;28;20199;-70
2022/08/11 18:03:57;;;;;;;2.35;1.38;;;;;;;25.16;35.06;94170.34;5005245;28;20195;-73
2022/08/11 18:06:42;;;;;;;2.10;1.40;;;;;;;24.30;36.39;94178.44;5006284;28;20261;-74
